Time;durP1;ratioP1;P1;durP2;ratioP2;P2;SDS_P1;SDS_P2;PMS_P1;PMS_P2;Temp;Humidity;BMP_temperature;BMP_pressure;BME280_temperature;BME280_humidity;BME280_pressure;Samples;Min_cycle;Max_cycle;Signal;HPM_P1;HPM_P2
2022/03/25 00:01:23;;;;;;;11.90;7.47;;;9.60;60.50;;;;;;5113902;28;20046;-64
2022/03/25 00:04:27;;;;;;;15.57;8.13;;;9.30;63.60;;;;;;5114183;28;20042;-62
2022/03/25 00:07:32;;;;;;;16.10;9.20;;;9.10;64.50;;;;;;5113259;28;20051;-63
2022/03/25 00:10:36;;;;;;;13.82;8.38;;;8.90;65.90;;;;;;5114002;28;20042;-63
2022/03/25 00:13:41;;;;;;;16.48;8.43;;;8.80;66.30;;;;;;5114240;28;20051;-62
2022/03/25 00:16:45;;;;;;;40.00;17.20;;;8.70;66.00;;;;;;5112817;28;20054;-63
2022/03/25 00:19:49;;;;;;;20.70;11.07;;;8.70;66.40;;;;;;5113701;28;20051;-63
2022/03/25 00:22:53;;;;;;;21.38;11.60;;;8.60;66.50;;;;;;5114110;28;20039;-63
2022/03/25 00:25:57;;;;;;;17.60;9.57;;;8.60;67.30;;;;;;5114015;28;20050;-63
2022/03/25 00:29:01;;;;;;;17.98;10.10;;;8.50;66.80;;;;;;5113793;28;20043;-63
2022/03/25 00:32:05;;;;;;;22.63;11.82;;;8.50;66.90;;;;;;5112183;28;20106;-65
2022/03/25 00:35:10;;;;;;;15.20;8.68;;;8.40;68.60;;;;;;5113563;28;20055;-64
2022/03/25 00:38:14;;;;;;;16.58;8.77;;;8.30;67.80;;;;;;5112757;28;20121;-65
2022/03/25 00:41:23;;;;;;;12.90;7.90;;;8.30;66.20;;;;;;5113218;28;20047;-65
2022/03/25 00:44:27;;;;;;;15.48;8.30;;;8.30;66.00;;;;;;5113327;28;20551;-64
2022/03/25 00:47:32;;;;;;;16.17;9.98;;;8.30;66.30;;;;;;5111865;28;20818;-64
2022/03/25 00:50:36;;;;;;;12.40;8.35;;;8.30;66.50;;;;;;5100368;28;20051;-65
2022/03/25 00:53:40;;;;;;;16.48;7.97;;;8.30;66.70;;;;;;5113148;28;20476;-65
2022/03/25 00:56:47;;;;;;;15.65;8.90;;;8.30;65.50;;;;;;5111679;28;20046;-65
2022/03/25 00:59:50;;;;;;;15.55;8.88;;;8.30;65.70;;;;;;5112930;28;20047;-64
2022/03/25 01:02:54;;;;;;;17.92;9.93;;;8.30;65.40;;;;;;5113045;28;20409;-64
2022/03/25 01:06:01;;;;;;;21.83;11.98;;;8.20;66.70;;;;;;5112784;28;20042;-64
2022/03/25 01:09:07;;;;;;;24.10;14.35;;;8.30;69.40;;;;;;5111872;28;20035;-64
2022/03/25 01:12:11;;;;;;;25.63;13.45;;;8.20;69.90;;;;;;5112308;28;20042;-64
2022/03/25 01:15:15;;;;;;;22.48;13.38;;;8.20;70.30;;;;;;5113190;28;20046;-64
2022/03/25 01:18:20;;;;;;;17.67;11.50;;;8.20;71.00;;;;;;5112143;28;20046;-64
2022/03/25 01:21:25;;;;;;;24.15;13.52;;;8.20;70.60;;;;;;5112297;28;20497;-64
2022/03/25 01:24:30;;;;;;;20.40;13.27;;;8.20;71.60;;;;;;5111913;28;20046;-64
2022/03/25 01:27:35;;;;;;;21.85;14.70;;;8.10;72.50;;;;;;5111134;28;20046;-64
2022/03/25 01:30:39;;;;;;;24.30;15.00;;;8.10;72.20;;;;;;5112718;28;20407;-65
2022/03/25 01:33:44;;;;;;;18.30;12.07;;;8.10;72.60;;;;;;5111192;28;20490;-65
2022/03/25 01:36:48;;;;;;;19.25;9.98;;;8.10;71.40;;;;;;5111093;28;20051;-65
2022/03/25 01:39:53;;;;;;;16.83;10.35;;;8.20;69.20;;;;;;5111585;28;20051;-65
2022/03/25 01:42:59;;;;;;;16.05;10.00;;;8.00;69.80;;;;;;5111892;28;20571;-61
2022/03/25 01:46:03;;;;;;;20.55;9.88;;;8.00;70.10;;;;;;5111253;28;20050;-62
2022/03/25 01:49:07;;;;;;;16.60;10.25;;;8.00;70.40;;;;;;5111132;28;20042;-64
2022/03/25 01:52:11;;;;;;;22.45;10.55;;;8.00;70.50;;;;;;5110820;28;20054;-64
2022/03/25 01:55:21;;;;;;;18.55;11.18;;;8.00;70.80;;;;;;5111882;28;20047;-65
2022/03/25 01:58:32;;;;;;;22.25;10.93;;;7.80;71.80;;;;;;5111590;28;20055;-64
2022/03/25 02:01:36;;;;;;;19.15;10.77;;;7.70;71.90;;;;;;5111679;28;20052;-64
2022/03/25 02:04:41;;;;;;;21.52;11.43;;;7.70;72.20;;;;;;5111874;28;20480;-64
2022/03/25 02:07:45;;;;;;;23.60;11.25;;;7.60;72.50;;;;;;5111174;28;20065;-65
2022/03/25 02:10:50;;;;;;;15.15;9.63;;;7.50;72.40;;;;;;5111908;28;20054;-64
2022/03/25 02:13:58;;;;;;;18.55;11.93;;;7.50;72.60;;;;;;5110258;28;20050;-64
2022/03/25 02:17:02;;;;;;;19.88;11.77;;;7.50;73.10;;;;;;5110152;28;20050;-65
2022/03/25 02:20:10;;;;;;;18.40;11.18;;;7.50;73.80;;;;;;5110522;28;20038;-65
2022/03/25 02:23:14;;;;;;;21.17;11.57;;;7.60;73.60;;;;;;5110379;28;20046;-66
2022/03/25 02:26:19;;;;;;;17.63;10.77;;;7.60;73.70;;;;;;5109919;28;20047;-65
2022/03/25 02:29:23;;;;;;;22.10;11.15;;;7.60;73.70;;;;;;5110271;28;20050;-64
2022/03/25 02:32:27;;;;;;;20.73;11.60;;;7.60;74.30;;;;;;5110213;28;20046;-64
2022/03/25 02:35:42;;;;;;;19.60;11.43;;;7.60;74.80;;;;;;5110591;28;20047;-64
2022/03/25 02:38:48;;;;;;;20.23;11.90;;;7.50;74.70;;;;;;5110719;28;20051;-65
2022/03/25 02:41:52;;;;;;;22.10;11.98;;;7.50;74.90;;;;;;5111814;28;20043;-65
2022/03/25 02:44:58;;;;;;;18.50;11.02;;;7.40;74.60;;;;;;5110881;28;20070;-64
2022/03/25 02:48:03;;;;;;;24.38;11.43;;;7.40;75.20;;;;;;5111513;28;20362;-64
2022/03/25 02:51:07;;;;;;;23.88;12.82;;;7.40;75.00;;;;;;5110800;28;20034;-64
2022/03/25 02:54:11;;;;;;;22.58;13.50;;;7.40;75.40;;;;;;5111527;28;20047;-65
2022/03/25 02:57:15;;;;;;;22.35;12.90;;;7.30;76.10;;;;;;5111128;28;20043;-65
2022/03/25 03:00:20;;;;;;;22.48;13.65;;;7.10;76.90;;;;;;5111984;28;20072;-65
2022/03/25 03:03:25;;;;;;;24.35;13.23;;;6.90;77.50;;;;;;5111565;28;20054;-65
2022/03/25 03:06:28;;;;;;;24.80;12.52;;;6.80;77.90;;;;;;5111317;28;20046;-64
2022/03/25 03:09:32;;;;;;;23.98;13.30;;;6.70;78.50;;;;;;5111222;28;20129;-64
2022/03/25 03:12:37;;;;;;;23.27;12.82;;;6.70;79.30;;;;;;5110775;28;20090;-64
2022/03/25 03:15:41;;;;;;;25.05;14.77;;;6.60;79.60;;;;;;5111108;28;20481;-64
2022/03/25 03:18:45;;;;;;;26.70;15.30;;;6.50;83.70;;;;;;5111290;28;20054;-64
2022/03/25 03:21:49;;;;;;;24.50;15.00;;;6.30;85.90;;;;;;5111529;28;20156;-64
2022/03/25 03:24:53;;;;;;;25.05;13.80;;;6.20;86.60;;;;;;5110583;28;20042;-64
2022/03/25 03:27:57;;;;;;;22.67;15.52;;;6.10;86.50;;;;;;5110512;28;20031;-64
2022/03/25 03:31:02;;;;;;;26.13;14.93;;;6.00;87.80;;;;;;5110856;28;20382;-65
2022/03/25 03:34:06;;;;;;;26.20;15.40;;;5.90;88.10;;;;;;5110888;28;20055;-64
2022/03/25 03:37:10;;;;;;;29.63;15.43;;;5.90;89.40;;;;;;5110326;28;20035;-65
2022/03/25 03:40:15;;;;;;;25.10;14.02;;;5.90;90.10;;;;;;5111251;28;20493;-64
2022/03/25 03:43:19;;;;;;;24.25;15.60;;;5.80;90.20;;;;;;5110964;28;20370;-65
2022/03/25 03:46:23;;;;;;;34.70;16.85;;;5.70;90.30;;;;;;5110618;28;20486;-64
2022/03/25 03:49:27;;;;;;;26.80;15.57;;;5.80;90.10;;;;;;5110024;28;20042;-64
2022/03/25 03:52:31;;;;;;;23.92;15.38;;;5.70;90.30;;;;;;5114864;28;20054;-64
2022/03/25 03:55:35;;;;;;;32.25;16.85;;;5.70;90.40;;;;;;5114775;28;20043;-64
2022/03/25 03:58:57;;;;;;;27.92;15.85;;;5.60;91.00;;;;;;5114441;28;20481;-64
2022/03/25 04:02:03;;;;;;;27.10;16.15;;;5.60;91.00;;;;;;5114234;28;20046;-65
2022/03/25 04:05:07;;;;;;;23.73;16.25;;;5.50;91.20;;;;;;5114122;28;20046;-64
2022/03/25 04:08:11;;;;;;;23.95;14.95;;;5.40;91.20;;;;;;5113644;28;20051;-65
2022/03/25 04:11:15;;;;;;;24.48;13.68;;;5.30;91.10;;;;;;5114256;28;20509;-64
2022/03/25 04:14:22;;;;;;;26.30;12.32;;;5.20;91.00;;;;;;5113739;28;20489;-64
2022/03/25 04:17:27;;;;;;;20.40;11.35;;;5.30;90.10;;;;;;5113454;28;20047;-65
2022/03/25 04:20:31;;;;;;;22.13;12.88;;;5.40;89.70;;;;;;5113333;28;20043;-65
2022/03/25 04:23:35;;;;;;;22.27;14.07;;;5.60;89.30;;;;;;5113202;28;20050;-65
2022/03/25 04:26:39;;;;;;;30.40;17.02;;;5.70;89.10;;;;;;5113296;28;20046;-64
2022/03/25 04:29:43;;;;;;;24.55;15.57;;;5.60;90.30;;;;;;5113458;28;20042;-66
2022/03/25 04:32:49;;;;;;;27.70;15.30;;;5.60;91.20;;;;;;5113477;28;20067;-65
2022/03/25 04:35:53;;;;;;;23.05;15.77;;;5.40;91.40;;;;;;5113223;28;20468;-64
2022/03/25 04:38:57;;;;;;;30.80;15.30;;;5.30;92.10;;;;;;5113439;28;20054;-65
2022/03/25 04:42:01;;;;;;;27.23;14.50;;;5.20;92.60;;;;;;5113398;28;20058;-65
2022/03/25 04:45:06;;;;;;;26.15;14.30;;;5.00;92.50;;;;;;5113144;28;20398;-64
2022/03/25 04:48:11;;;;;;;26.65;15.48;;;5.00;93.30;;;;;;5112736;28;20043;-64
2022/03/25 04:51:15;;;;;;;32.88;16.67;;;5.00;93.10;;;;;;5113267;28;20046;-64
2022/03/25 04:54:19;;;;;;;29.42;16.33;;;5.00;93.20;;;;;;5112667;28;20140;-64
2022/03/25 04:57:23;;;;;;;23.55;14.05;;;5.00;93.10;;;;;;5112531;28;20038;-64
2022/03/25 05:00:27;;;;;;;23.30;13.40;;;5.00;92.30;;;;;;5113052;28;20054;-65
2022/03/25 05:03:31;;;;;;;21.60;12.55;;;5.10;92.00;;;;;;5112781;28;20050;-64
2022/03/25 05:06:35;;;;;;;26.20;14.68;;;5.10;92.40;;;;;;5112409;28;20051;-64
2022/03/25 05:09:39;;;;;;;22.85;11.75;;;5.00;92.00;;;;;;5112941;28;20051;-64
2022/03/25 05:12:45;;;;;;;23.90;12.18;;;5.10;90.90;;;;;;5112958;28;20477;-64
2022/03/25 05:15:49;;;;;;;17.48;9.27;;;5.10;90.70;;;;;;5112460;28;20043;-64
2022/03/25 05:18:53;;;;;;;17.33;9.77;;;5.00;90.10;;;;;;5111784;28;20051;-65
2022/03/25 05:21:57;;;;;;;22.30;10.95;;;5.00;90.00;;;;;;5112435;28;20034;-64
2022/03/25 05:25:06;;;;;;;22.20;12.10;;;5.00;90.20;;;;;;5112471;28;20046;-64
2022/03/25 05:28:10;;;;;;;23.92;11.35;;;5.00;90.20;;;;;;5111966;28;20030;-63
2022/03/25 05:31:14;;;;;;;24.42;12.20;;;5.00;90.30;;;;;;5112105;28;20497;-64
2022/03/25 05:34:18;;;;;;;29.08;14.10;;;5.00;90.70;;;;;;5112434;28;20046;-64
2022/03/25 05:37:24;;;;;;;30.58;14.55;;;5.00;92.20;;;;;;5111803;28;20054;-65
2022/03/25 05:40:27;;;;;;;24.75;14.45;;;5.00;92.30;;;;;;5112331;28;20066;-64
2022/03/25 05:43:31;;;;;;;29.63;15.57;;;5.00;92.70;;;;;;5112368;28;20055;-64
2022/03/25 05:46:36;;;;;;;27.95;16.38;;;5.00;93.10;;;;;;5111265;28;20050;-64
2022/03/25 05:49:39;;;;;;;25.45;15.88;;;5.10;93.40;;;;;;5112091;28;20054;-65
2022/03/25 05:52:44;;;;;;;27.55;15.20;;;5.20;93.20;;;;;;5112231;28;20050;-64
2022/03/25 05:55:48;;;;;;;24.20;15.65;;;5.20;93.20;;;;;;5112230;28;20046;-64
2022/03/25 05:58:52;;;;;;;29.45;16.88;;;5.80;93.30;;;;;;5112173;28;20485;-65
2022/03/25 06:01:56;;;;;;;32.00;19.20;;;8.50;90.30;;;;;;5111691;28;20051;-66
2022/03/25 06:05:00;;;;;;;24.77;14.77;;;11.00;82.00;;;;;;5111743;28;20050;-65
2022/03/25 06:08:04;;;;;;;28.73;16.77;;;13.50;75.00;;;;;;5110960;28;20385;-65
2022/03/25 06:11:09;;;;;;;30.55;17.33;;;15.40;68.30;;;;;;5111512;28;20607;-66
2022/03/25 06:14:13;;;;;;;30.13;17.45;;;16.20;65.90;;;;;;5110930;28;20046;-65
2022/03/25 06:17:17;;;;;;;29.38;16.23;;;17.00;64.40;;;;;;5110838;28;20051;-64
2022/03/25 06:20:27;;;;;;;32.55;17.63;;;18.00;63.20;;;;;;5111290;28;20653;-65
2022/03/25 06:23:31;;;;;;;25.65;16.45;;;18.40;61.10;;;;;;5111685;28;20382;-66
2022/03/25 06:26:35;;;;;;;22.40;14.85;;;18.60;60.00;;;;;;5110725;28;20046;-63
2022/03/25 06:29:39;;;;;;;29.40;16.30;;;19.20;58.20;;;;;;5111456;28;20047;-65
2022/03/25 06:32:43;;;;;;;33.22;15.23;;;19.80;57.70;;;;;;5111329;28;20042;-65
2022/03/25 06:35:48;;;;;;;21.85;14.30;;;20.30;57.80;;;;;;5111251;28;20370;-65
2022/03/25 06:38:52;;;;;;;24.27;13.50;;;21.30;55.90;;;;;;5111495;28;20070;-65
2022/03/25 06:41:56;;;;;;;19.52;12.88;;;21.50;54.00;;;;;;5111588;28;20050;-64
2022/03/25 06:45:00;;;;;;;25.00;13.82;;;21.30;53.50;;;;;;5111399;28;20039;-63
2022/03/25 06:48:04;;;;;;;23.75;14.20;;;21.90;53.50;;;;;;5110810;28;20043;-63
2022/03/25 06:51:09;;;;;;;22.77;13.15;;;22.30;52.90;;;;;;5111073;28;20485;-63
2022/03/25 06:54:14;;;;;;;18.65;13.07;;;22.40;52.40;;;;;;5111430;28;20055;-65
2022/03/25 06:57:18;;;;;;;20.90;12.85;;;22.40;51.90;;;;;;5110419;28;20054;-65
2022/03/25 07:00:24;;;;;;;20.77;12.70;;;22.50;52.40;;;;;;5109886;28;20106;-65
2022/03/25 07:03:29;;;;;;;17.63;13.23;;;22.80;51.70;;;;;;5101940;28;20482;-63
2022/03/25 07:06:37;;;;;;;20.52;11.75;;;23.60;50.80;;;;;;5101419;28;20051;-63
2022/03/25 07:09:41;;;;;;;20.00;13.07;;;23.90;50.10;;;;;;5109759;28;20046;-63
2022/03/25 07:12:46;;;;;;;20.88;14.57;;;23.80;49.10;;;;;;5096072;28;20039;-63
2022/03/25 07:15:50;;;;;;;17.83;13.30;;;24.20;49.10;;;;;;5098261;28;20055;-63
2022/03/25 07:18:55;;;;;;;19.85;13.02;;;22.70;50.60;;;;;;5106042;28;20034;-63
2022/03/25 07:21:59;;;;;;;26.92;13.15;;;20.20;53.80;;;;;;5105811;28;20589;-63
2022/03/25 07:25:04;;;;;;;20.48;12.38;;;21.00;54.00;;;;;;5106695;28;20035;-63
2022/03/25 07:28:09;;;;;;;21.08;13.13;;;20.90;53.60;;;;;;5104951;28;20047;-63
2022/03/25 07:31:13;;;;;;;16.42;12.15;;;20.40;52.80;;;;;;5101018;28;20039;-63
2022/03/25 07:34:18;;;;;;;18.05;12.65;;;20.40;53.50;;;;;;5111422;28;20039;-63
2022/03/25 07:37:22;;;;;;;16.63;11.77;;;20.70;53.50;;;;;;5110826;28;20038;-64
2022/03/25 07:40:26;;;;;;;17.40;11.55;;;21.40;52.90;;;;;;5108211;28;20050;-63
2022/03/25 07:43:31;;;;;;;20.17;12.10;;;23.20;51.00;;;;;;5103807;28;20488;-63
2022/03/25 07:46:34;;;;;;;15.25;11.80;;;24.20;49.50;;;;;;5103994;28;20481;-63
2022/03/25 07:49:39;;;;;;;16.00;10.80;;;23.80;48.70;;;;;;5106597;28;20048;-63
2022/03/25 07:52:46;;;;;;;18.38;11.88;;;23.80;49.30;;;;;;5102200;28;20046;-63
2022/03/25 07:55:51;;;;;;;16.13;10.63;;;24.60;48.90;;;;;;5102790;28;20035;-63
2022/03/25 07:58:55;;;;;;;15.65;11.48;;;22.10;49.90;;;;;;5105527;28;20038;-63
2022/03/25 08:01:59;;;;;;;14.52;10.88;;;20.20;52.70;;;;;;5105887;28;20030;-63
2022/03/25 08:05:03;;;;;;;19.52;10.57;;;21.20;52.80;;;;;;5111658;28;20056;-63
2022/03/25 08:08:08;;;;;;;19.30;11.77;;;23.60;49.80;;;;;;5108289;28;20038;-63
2022/03/25 08:11:12;;;;;;;17.02;11.70;;;23.30;49.10;;;;;;5100595;28;20039;-63
2022/03/25 08:14:17;;;;;;;14.95;10.07;;;21.30;51.00;;;;;;5108590;28;20110;-64
2022/03/25 08:17:23;;;;;;;14.55;10.35;;;24.00;49.90;;;;;;5107245;28;20047;-63
2022/03/25 08:20:30;;;;;;;14.75;11.20;;;24.50;48.50;;;;;;5105958;28;20050;-63
2022/03/25 08:30:20;;;;;;;14.20;10.73;;;23.00;50.80;;;;;;5102064;28;20051;-64
2022/03/25 08:33:25;;;;;;;16.90;10.93;;;22.00;51.80;;;;;;5101120;28;20469;-64
2022/03/25 08:36:29;;;;;;;15.82;9.95;;;23.00;51.00;;;;;;5104757;28;20367;-64
2022/03/25 08:39:32;;;;;;;11.20;9.43;;;24.90;48.20;;;;;;5106035;28;20035;-63
2022/03/25 08:42:37;;;;;;;14.13;10.35;;;25.60;47.50;;;;;;5101256;28;20047;-64
2022/03/25 08:45:41;;;;;;;14.27;10.10;;;25.70;46.50;;;;;;5108411;28;20422;-64
2022/03/25 08:48:45;;;;;;;19.00;9.75;;;24.80;49.00;;;;;;5109357;28;20051;-63
2022/03/25 08:51:49;;;;;;;14.52;10.38;;;24.90;47.60;;;;;;5106454;28;20046;-72
2022/03/25 08:54:54;;;;;;;16.42;9.77;;;27.60;46.50;;;;;;5100926;28;20039;-72
2022/03/25 08:57:58;;;;;;;12.27;9.48;;;27.00;45.20;;;;;;5108389;28;20050;-71
2022/03/25 09:01:03;;;;;;;11.55;8.95;;;28.80;46.00;;;;;;5080397;28;20042;-64
2022/03/25 09:04:08;;;;;;;12.80;9.40;;;30.70;44.70;;;;;;5108596;28;20035;-64
2022/03/25 09:07:13;;;;;;;11.40;8.45;;;30.00;44.30;;;;;;5101754;28;20031;-65
2022/03/25 09:10:18;;;;;;;13.25;8.25;;;31.80;43.10;;;;;;5101695;28;20031;-65
2022/03/25 09:13:22;;;;;;;13.00;8.73;;;30.80;42.80;;;;;;5102383;28;20047;-73
2022/03/25 09:16:26;;;;;;;13.02;8.23;;;31.60;43.00;;;;;;5105579;28;20054;-72
2022/03/25 09:19:31;;;;;;;18.48;8.88;;;32.20;42.40;;;;;;5105229;28;20050;-72
2022/03/25 09:22:35;;;;;;;13.70;8.63;;;29.00;43.80;;;;;;5102908;28;20043;-72
2022/03/25 09:25:40;;;;;;;15.15;8.60;;;31.10;42.90;;;;;;5104952;28;20059;-72
2022/03/25 09:28:45;;;;;;;14.75;8.07;;;29.80;41.60;;;;;;5106625;28;20050;-65
2022/03/25 09:31:50;;;;;;;15.00;8.50;;;30.00;42.60;;;;;;5099828;28;20055;-65
2022/03/25 09:35:10;;;;;;;14.95;8.25;;;31.10;43.20;;;;;;5102542;28;20047;-65
2022/03/25 09:38:15;;;;;;;11.38;7.25;;;33.20;42.10;;;;;;5101919;28;20067;-72
2022/03/25 09:41:19;;;;;;;10.02;6.75;;;35.40;40.40;;;;;;5104838;28;20437;-65
2022/03/25 09:44:23;;;;;;;17.80;7.18;;;36.30;39.30;;;;;;5110090;28;20035;-73
2022/03/25 09:47:30;;;;;;;11.75;6.97;;;37.10;39.60;;;;;;5100269;28;20047;-73
2022/03/25 09:50:39;;;;;;;9.60;6.75;;;38.60;39.10;;;;;;5102664;28;20046;-62
2022/03/25 09:53:45;;;;;;;14.45;6.53;;;39.70;38.70;;;;;;5100917;28;20046;-65
2022/03/25 09:56:49;;;;;;;9.00;6.20;;;41.00;37.90;;;;;;5101234;28;20050;-73
2022/03/25 09:59:55;;;;;;;10.27;6.47;;;41.50;37.00;;;;;;5101493;28;20051;-65
2022/03/25 10:03:00;;;;;;;8.13;5.78;;;41.00;37.50;;;;;;5098185;28;20042;-73
2022/03/25 10:06:14;;;;;;;10.20;5.30;;;41.20;36.10;;;;;;5087035;28;20039;-65
2022/03/25 10:09:22;;;;;;;9.32;5.35;;;41.30;35.60;;;;;;5107343;28;20477;-73
2022/03/25 10:12:27;;;;;;;7.95;5.57;;;41.70;35.60;;;;;;5109155;28;20039;-74
2022/03/25 10:15:38;;;;;;;6.65;4.82;;;41.60;35.80;;;;;;5102221;28;20051;-73
2022/03/25 10:18:52;;;;;;;9.63;5.43;;;38.20;34.30;;;;;;5101256;28;20042;-65
2022/03/25 10:21:56;;;;;;;10.25;5.63;;;37.40;35.70;;;;;;5107112;28;20043;-73
2022/03/25 10:25:00;;;;;;;7.25;5.65;;;37.90;36.10;;;;;;5107513;28;20042;-65
2022/03/25 10:28:27;;;;;;;7.50;5.63;;;38.70;36.00;;;;;;5105811;28;20043;-73
2022/03/25 10:31:31;;;;;;;7.43;4.97;;;39.40;35.60;;;;;;5104804;28;20074;-74
2022/03/25 10:34:40;;;;;;;14.27;5.25;;;40.40;35.70;;;;;;5107619;28;20039;-65
2022/03/25 10:37:58;;;;;;;8.30;4.80;;;41.60;35.60;;;;;;5108797;28;20047;-73
2022/03/25 10:41:02;;;;;;;8.77;4.70;;;41.70;34.60;;;;;;5103228;28;20044;-66
2022/03/25 10:44:08;;;;;;;10.55;4.88;;;42.40;34.90;;;;;;5108024;28;20039;-65
2022/03/25 10:47:24;;;;;;;5.38;4.53;;;42.10;34.40;;;;;;5107860;28;20477;-65
2022/03/25 10:50:28;;;;;;;7.18;4.80;;;42.60;33.90;;;;;;5105059;28;20046;-65
2022/03/25 10:57:03;;;;;;;7.15;5.30;;;42.00;34.60;;;;;;5104674;28;20050;-73
2022/03/25 11:00:08;;;;;;;7.85;5.07;;;38.10;33.90;;;;;;5109565;28;20054;-72
2022/03/25 11:03:16;;;;;;;7.07;4.95;;;38.90;34.30;;;;;;5114632;28;20509;-73
2022/03/25 11:06:24;;;;;;;5.70;4.70;;;39.20;34.00;;;;;;5111651;28;20051;-65
2022/03/25 11:09:28;;;;;;;6.78;4.80;;;40.50;34.00;;;;;;5112278;28;20039;-65
2022/03/25 11:12:33;;;;;;;7.60;5.10;;;41.50;32.50;;;;;;5112791;28;20517;-65
2022/03/25 11:15:40;;;;;;;8.95;4.72;;;42.20;32.90;;;;;;5103047;28;20042;-72
2022/03/25 11:18:44;;;;;;;9.70;5.68;;;42.60;33.20;;;;;;5109819;28;20038;-65
2022/03/25 11:21:54;;;;;;;8.32;5.03;;;43.00;33.10;;;;;;5111387;28;20042;-73
2022/03/25 11:25:02;;;;;;;6.10;4.88;;;42.50;31.90;;;;;;5113453;28;20046;-72
2022/03/25 11:28:09;;;;;;;15.25;5.72;;;42.20;32.60;;;;;;5106976;28;20043;-72
2022/03/25 11:31:13;;;;;;;9.70;5.80;;;41.80;32.80;;;;;;5111206;28;20559;-66
2022/03/25 11:34:28;;;;;;;7.28;5.22;;;42.00;32.60;;;;;;5109399;28;20042;-65
2022/03/25 11:37:34;;;;;;;8.23;5.22;;;42.10;32.80;;;;;;5106427;28;20062;-72
2022/03/25 11:40:47;;;;;;;13.82;5.60;;;40.60;30.80;;;;;;5110671;28;20038;-66
2022/03/25 11:44:16;;;;;;;11.93;5.57;;;41.50;33.20;;;;;;5111233;28;20382;-65
2022/03/25 11:47:21;;;;;;;11.60;5.72;;;42.40;32.70;;;;;;5107657;28;20378;-73
2022/03/25 11:50:29;;;;;;;6.70;5.28;;;41.70;31.50;;;;;;5111061;28;20050;-73
2022/03/25 11:53:35;;;;;;;7.25;5.18;;;41.40;31.90;;;;;;5112487;28;20389;-65
2022/03/25 11:56:49;;;;;;;6.20;5.47;;;41.30;31.90;;;;;;5103498;28;20063;-65
2022/03/25 11:59:59;;;;;;;8.27;5.70;;;41.20;30.90;;;;;;5106724;28;20034;-65
2022/03/25 12:03:05;;;;;;;22.77;6.28;;;39.70;32.20;;;;;;5107328;28;20043;-65
2022/03/25 12:06:11;;;;;;;9.40;5.90;;;40.20;32.60;;;;;;5110272;28;20039;-65
2022/03/25 12:09:19;;;;;;;7.63;6.25;;;40.40;32.50;;;;;;5101022;28;20035;-65
2022/03/25 12:12:53;;;;;;;12.90;6.47;;;38.20;31.50;;;;;;5107016;28;20514;-65
2022/03/25 12:15:57;;;;;;;8.50;6.20;;;37.60;34.00;;;;;;5102359;28;20042;-65
2022/03/25 12:19:01;;;;;;;11.82;6.22;;;38.50;33.00;;;;;;5108778;28;20047;-65
2022/03/25 12:22:17;;;;;;;6.60;5.95;;;39.20;32.60;;;;;;5107038;28;20034;-66
2022/03/25 12:25:21;;;;;;;9.85;6.10;;;37.20;32.30;;;;;;5108165;28;20042;-66
2022/03/25 12:28:25;;;;;;;8.13;5.85;;;38.60;32.30;;;;;;5106685;28;20051;-72
2022/03/25 12:31:30;;;;;;;9.90;6.30;;;39.60;32.20;;;;;;5112297;28;20497;-73
2022/03/25 12:34:49;;;;;;;10.20;6.70;;;40.00;31.80;;;;;;5101717;28;20038;-65
2022/03/25 12:37:53;;;;;;;10.48;6.03;;;37.60;33.00;;;;;;5108660;28;20047;-72
2022/03/25 12:40:57;;;;;;;10.73;6.70;;;39.30;32.70;;;;;;5104998;28;20051;-65
2022/03/25 12:44:03;;;;;;;9.23;6.47;;;40.00;32.20;;;;;;5106167;28;20043;-65
2022/03/25 12:47:09;;;;;;;7.90;6.30;;;37.20;33.20;;;;;;5106550;28;20107;-65
2022/03/25 12:50:17;;;;;;;11.30;5.93;;;37.50;34.00;;;;;;5107581;28;20034;-65
2022/03/25 12:53:27;;;;;;;9.32;6.90;;;38.10;33.10;;;;;;5105250;28;20042;-73
2022/03/25 12:56:31;;;;;;;;;;;38.40;33.30;;;;;;5112158;28;20058;-73
2022/03/25 12:59:36;;;;;;;10.48;6.75;;;39.30;33.10;;;;;;5103916;28;20305;-73
2022/03/25 13:02:43;;;;;;;9.13;6.50;;;38.80;33.50;;;;;;5105870;28;20042;-65
2022/03/25 13:05:47;;;;;;;9.10;6.30;;;38.30;32.80;;;;;;5109712;28;20034;-72
2022/03/25 13:09:02;;;;;;;7.68;6.55;;;37.90;33.00;;;;;;5112389;28;20043;-72
2022/03/25 13:12:06;;;;;;;11.10;6.63;;;37.90;32.70;;;;;;5113723;28;20043;-73
2022/03/25 13:15:13;;;;;;;7.70;6.55;;;37.40;33.60;;;;;;5113722;28;20051;-65
2022/03/25 13:18:43;;;;;;;14.85;6.63;;;37.20;32.90;;;;;;5113847;28;20511;-65
2022/03/25 13:21:47;;;;;;;14.07;7.77;;;36.40;32.40;;;;;;5107651;28;20047;-65
2022/03/25 13:24:56;;;;;;;9.85;6.43;;;35.80;33.10;;;;;;5113006;28;20817;-65
2022/03/25 13:28:01;;;;;;;9.10;6.80;;;35.60;33.30;;;;;;5112094;28;20042;-73
2022/03/25 13:31:10;;;;;;;10.15;6.63;;;32.90;33.20;;;;;;5095955;28;20043;-72
2022/03/25 13:34:16;;;;;;;9.45;7.05;;;33.30;34.50;;;;;;5104760;28;20488;-73
2022/03/25 13:37:24;;;;;;;10.20;7.57;;;33.40;34.80;;;;;;5112310;28;20058;-69
2022/03/25 13:40:33;;;;;;;15.23;7.85;;;33.70;33.60;;;;;;5112717;28;20051;-65
2022/03/25 13:43:47;;;;;;;13.90;6.88;;;34.90;33.90;;;;;;5112246;28;20116;-65
2022/03/25 13:47:06;;;;;;;7.53;6.32;;;35.50;35.20;;;;;;5103564;28;20072;-64
2022/03/25 13:50:15;;;;;;;10.70;7.30;;;35.40;34.30;;;;;;5112447;28;20047;-72
2022/03/25 13:53:33;;;;;;;13.00;7.15;;;34.80;33.90;;;;;;5113532;28;20046;-73
2022/03/25 13:56:39;;;;;;;10.05;7.28;;;35.40;33.80;;;;;;5111656;28;20058;-73
2022/03/25 13:59:43;;;;;;;10.52;6.55;;;33.70;33.30;;;;;;5112540;28;20070;-65
2022/03/25 14:02:49;;;;;;;12.15;7.13;;;35.00;34.60;;;;;;5112941;28;20039;-65
2022/03/25 14:05:54;;;;;;;11.15;7.35;;;35.60;34.40;;;;;;5093016;28;20046;-65
2022/03/25 14:08:58;;;;;;;9.50;6.97;;;36.10;33.70;;;;;;5103758;28;20035;-65
2022/03/25 14:12:15;;;;;;;14.65;6.53;;;36.20;33.30;;;;;;5102919;28;20046;-65
2022/03/25 14:15:25;;;;;;;9.00;6.90;;;35.90;33.60;;;;;;5102395;28;20051;-65
2022/03/25 14:18:29;;;;;;;12.23;7.63;;;36.20;33.90;;;;;;5110898;28;20497;-65
2022/03/25 14:21:35;;;;;;;10.05;7.13;;;34.70;35.40;;;;;;5110957;28;20038;-65
2022/03/25 14:24:40;;;;;;;9.13;7.05;;;34.30;35.60;;;;;;5110906;28;20038;-65
2022/03/25 14:27:52;;;;;;;15.75;7.88;;;34.10;34.70;;;;;;5108554;28;20043;-65
2022/03/25 14:31:02;;;;;;;12.13;8.07;;;33.90;36.30;;;;;;5090019;28;20050;-65
2022/03/25 14:34:06;;;;;;;15.15;8.35;;;33.40;36.30;;;;;;5106571;28;20509;-64
2022/03/25 14:37:10;;;;;;;12.90;8.45;;;32.20;36.20;;;;;;5110769;28;20074;-64
2022/03/25 14:40:14;;;;;;;16.23;9.13;;;30.90;35.60;;;;;;5111177;28;20053;-62
2022/03/25 14:43:18;;;;;;;12.10;8.18;;;30.10;36.90;;;;;;5110749;28;20039;-64
2022/03/25 14:46:23;;;;;;;13.55;8.90;;;29.30;38.30;;;;;;5109804;28;20050;-63
2022/03/25 14:49:29;;;;;;;21.95;9.20;;;28.80;39.00;;;;;;5111461;28;20110;-65
2022/03/25 14:52:35;;;;;;;15.98;9.35;;;28.10;39.60;;;;;;5110678;28;20043;-64
2022/03/25 14:55:39;;;;;;;14.02;9.02;;;27.70;39.00;;;;;;5111226;28;20050;-66
2022/03/25 14:58:43;;;;;;;15.73;9.43;;;27.20;39.30;;;;;;5111422;28;20047;-64
2022/03/25 15:01:49;;;;;;;14.73;10.15;;;24.40;39.00;;;;;;5110867;28;20047;-64
2022/03/25 15:04:54;;;;;;;15.05;9.25;;;24.20;41.20;;;;;;5110719;28;20055;-66
2022/03/25 15:07:57;;;;;;;17.45;9.38;;;24.80;39.90;;;;;;5110111;28;20744;-66
2022/03/25 15:11:02;;;;;;;14.88;9.35;;;25.10;40.20;;;;;;5110740;28;20042;-66
2022/03/25 15:14:06;;;;;;;15.57;8.95;;;25.30;41.70;;;;;;5110602;28;20775;-65
2022/03/25 15:17:10;;;;;;;19.45;9.30;;;25.30;41.40;;;;;;5110622;28;20046;-65
2022/03/25 15:20:14;;;;;;;15.88;8.85;;;25.20;41.30;;;;;;5110561;28;20047;-65
2022/03/25 15:23:18;;;;;;;18.65;9.15;;;25.10;41.70;;;;;;5110030;28;20375;-65
2022/03/25 15:26:23;;;;;;;17.45;9.60;;;25.10;42.00;;;;;;5110612;28;20523;-66
2022/03/25 15:36:13;;;;;;;20.50;10.77;;;24.10;41.60;;;;;;5109002;28;20051;-65
2022/03/25 15:39:17;;;;;;;21.13;10.63;;;23.90;43.40;;;;;;5090618;28;20055;-65
2022/03/25 15:42:22;;;;;;;22.70;9.93;;;24.00;42.00;;;;;;5096444;28;20386;-66
2022/03/25 15:45:26;;;;;;;12.23;9.02;;;24.00;42.80;;;;;;5110917;28;20062;-65
2022/03/25 15:48:31;;;;;;;17.02;10.13;;;24.00;42.30;;;;;;5113614;28;20037;-66
2022/03/25 15:51:35;;;;;;;17.10;10.10;;;23.80;42.50;;;;;;5113858;28;20047;-65
2022/03/25 15:54:39;;;;;;;13.60;9.55;;;23.90;43.20;;;;;;5102809;28;20082;-65
2022/03/25 15:57:55;;;;;;;18.15;9.65;;;23.60;42.20;;;;;;5113428;28;20046;-65
2022/03/25 16:01:00;;;;;;;18.02;10.02;;;23.60;43.10;;;;;;5114423;28;20042;-65
2022/03/25 16:04:05;;;;;;;14.70;9.30;;;23.60;43.20;;;;;;5113636;28;20044;-65
2022/03/25 16:07:09;;;;;;;13.50;8.85;;;23.50;42.80;;;;;;5113961;28;20051;-66
2022/03/25 16:10:14;;;;;;;14.20;9.02;;;23.30;43.10;;;;;;5100284;28;20039;-66
2022/03/25 16:13:21;;;;;;;11.90;8.65;;;23.20;43.30;;;;;;5102135;28;20047;-66